Time;durP1;ratioP1;P1;durP2;ratioP2;P2;SDS_P1;SDS_P2;PMS_P1;PMS_P2;Temp;Humidity;BMP_temperature;BMP_pressure;BME280_temperature;BME280_humidity;BME280_pressure;Samples;Min_cycle;Max_cycle;Signal;HPM_P1;HPM_P2
2021/12/13 00:02:25;;;;;;;2.00;1.30;;;;;;;;;;7387868;19;20460;-73
2021/12/13 00:05:04;;;;;;;1.83;1.65;;;;;;;;;;7385377;19;20002;-72
2021/12/13 00:07:35;;;;;;;1.45;1.27;;;;;;;;;;7389624;19;20073;-72
2021/12/13 00:10:07;;;;;;;2.10;1.50;;;;;;;;;;7387934;19;20007;-73
2021/12/13 00:12:39;;;;;;;1.63;1.30;;;;;;;;;;7388823;19;20006;-72
2021/12/13 00:15:10;;;;;;;1.38;1.27;;;;;;;;;;7386950;19;20038;-73
2021/12/13 00:17:46;;;;;;;2.05;1.40;;;;;;;;;;7388529;19;20040;-71
2021/12/13 00:20:27;;;;;;;4.70;1.80;;;;;;;;;;7385286;19;20002;-73
2021/12/13 00:22:54;;;;;;;2.10;1.42;;;;;;;;;;7386436;19;20014;-71
2021/12/13 00:25:25;;;;;;;3.17;1.65;;;;;;;;;;7384707;19;20341;-72
2021/12/13 00:28:06;;;;;;;3.45;1.52;;;;;;;;;;7388736;19;20031;-72
2021/12/13 00:30:31;;;;;;;2.10;1.40;;;;;;;;;;7386852;19;20011;-72
2021/12/13 00:33:26;;;;;;;2.10;1.45;;;;;;;;;;7387848;19;20540;-73
2021/12/13 00:35:57;;;;;;;2.38;1.42;;;;;;;;;;7388273;19;20119;-72
2021/12/13 00:38:25;;;;;;;2.65;1.42;;;;;;;;;;7385873;19;20467;-71
2021/12/13 00:41:00;;;;;;;3.33;1.17;;;;;;;;;;7386799;19;20069;-72
2021/12/13 00:43:35;;;;;;;1.40;1.15;;;;;;;;;;7388268;19;20015;-72
2021/12/13 00:46:04;;;;;;;1.48;1.20;;;;;;;;;;7385344;19;20018;-72
2021/12/13 00:48:33;;;;;;;3.88;1.15;;;;;;;;;;7384477;19;20010;-72
2021/12/13 00:51:08;;;;;;;1.67;1.05;;;;;;;;;;7388268;19;20011;-72
2021/12/13 00:53:35;;;;;;;;;;;;;;;;;;7388373;19;20022;-72
2021/12/13 00:56:21;;;;;;;2.22;1.17;;;;;;;;;;7386022;19;19918;-72
2021/12/13 00:58:47;;;;;;;;;;;;;;;;;;7386925;19;20013;-73
2021/12/13 01:01:13;;;;;;;1.15;0.63;;;;;;;;;;7384052;19;20301;-71
2021/12/13 01:03:42;;;;;;;1.83;0.85;;;;;;;;;;7382635;19;20006;-73
2021/12/13 01:06:37;;;;;;;1.75;0.93;;;;;;;;;;7385676;19;20376;-73
2021/12/13 01:09:53;;;;;;;2.25;1.08;;;;;;;;;;7386139;19;20078;-73
2021/12/13 01:12:21;;;;;;;1.00;0.88;;;;;;;;;;7386338;19;20010;-72
2021/12/13 01:15:03;;;;;;;2.08;1.02;;;;;;;;;;7389914;19;20042;-71
2021/12/13 01:18:15;;;;;;;1.02;0.90;;;;;;;;;;7389992;19;20006;-71
2021/12/13 01:21:01;;;;;;;1.00;0.88;;;;;;;;;;7387542;19;20014;-72
2021/12/13 01:23:48;;;;;;;1.08;0.80;;;;;;;;;;7385620;19;20483;-72
2021/12/13 01:26:39;;;;;;;1.05;0.82;;;;;;;;;;7386512;19;20513;-72
2021/12/13 01:29:12;;;;;;;1.70;1.00;;;;;;;;;;7386773;19;20508;-72
2021/12/13 01:31:53;;;;;;;1.02;0.93;;;;;;;;;;7386416;19;20017;-72
2021/12/13 01:34:24;;;;;;;4.22;1.23;;;;;;;;;;7385761;19;20037;-72
2021/12/13 01:37:03;;;;;;;2.75;1.40;;;;;;;;;;7387372;19;20006;-72
2021/12/13 01:39:30;;;;;;;1.23;1.10;;;;;;;;;;7381397;19;20081;-72
2021/12/13 01:42:07;;;;;;;1.13;1.02;;;;;;;;;;7385376;19;20007;-70
2021/12/13 01:44:43;;;;;;;1.40;0.90;;;;;;;;;;7385371;19;20011;-71
2021/12/13 01:47:24;;;;;;;1.38;1.08;;;;;;;;;;7385934;19;20022;-72
2021/12/13 01:50:02;;;;;;;2.05;1.23;;;;;;;;;;7385661;19;20019;-73
2021/12/13 01:52:34;;;;;;;1.35;0.98;;;;;;;;;;7385061;19;20010;-73
2021/12/13 01:55:12;;;;;;;1.73;1.20;;;;;;;;;;7384943;19;20006;-72
2021/12/13 01:57:46;;;;;;;1.10;1.00;;;;;;;;;;7387495;19;20010;-72
2021/12/13 02:01:08;;;;;;;1.38;1.20;;;;;;;;;;7384536;19;20469;-72
2021/12/13 02:03:20;;;;;;;2.08;1.27;;;;;;;;;;7384524;19;20017;-73
2021/12/13 02:05:47;;;;;;;2.08;1.40;;;;;;;;;;7384937;19;20415;-71
2021/12/13 02:08:15;;;;;;;1.35;1.10;;;;;;;;;;7381748;19;20042;-73
2021/12/13 02:10:51;;;;;;;1.15;1.02;;;;;;;;;;7382964;19;20011;-72
2021/12/13 02:13:20;;;;;;;1.75;1.45;;;;;;;;;;7385759;19;20479;-73
2021/12/13 02:18:35;;;;;;;0.85;0.85;;;;;;;;;;7383223;19;20014;-73
2021/12/13 02:21:08;;;;;;;1.20;1.00;;;;;;;;;;7381570;19;20021;-74
2021/12/13 02:23:39;;;;;;;1.13;1.02;;;;;;;;;;7384191;19;20372;-70
2021/12/13 02:26:06;;;;;;;1.17;1.00;;;;;;;;;;7386218;19;20384;-72
2021/12/13 02:28:35;;;;;;;0.95;0.85;;;;;;;;;;7380644;19;20022;-70
2021/12/13 02:31:12;;;;;;;1.33;1.10;;;;;;;;;;7383314;19;20058;-72
2021/12/13 02:34:02;;;;;;;1.15;1.05;;;;;;;;;;7383305;19;20005;-72
2021/12/13 02:36:35;;;;;;;1.67;1.13;;;;;;;;;;7385864;19;20013;-72
2021/12/13 02:39:09;;;;;;;1.70;1.13;;;;;;;;;;7381826;19;20006;-72
2021/12/13 02:41:36;;;;;;;1.75;1.27;;;;;;;;;;7381266;19;20334;-71
2021/12/13 02:44:13;;;;;;;1.30;1.20;;;;;;;;;;7383144;19;20059;-72
2021/12/13 02:46:39;;;;;;;1.30;1.20;;;;;;;;;;7382480;19;20369;-72
2021/12/13 02:49:11;;;;;;;1.50;1.30;;;;;;;;;;7384049;19;20010;-70
2021/12/13 02:51:36;;;;;;;2.22;1.10;;;;;;;;;;7382383;19;20003;-72
2021/12/13 02:54:17;;;;;;;1.65;1.27;;;;;;;;;;7384671;19;19999;-71
2021/12/13 02:56:46;;;;;;;1.30;1.17;;;;;;;;;;7383859;19;20017;-72
2021/12/13 02:59:13;;;;;;;1.40;1.23;;;;;;;;;;7382314;19;20110;-73
2021/12/13 03:01:46;;;;;;;1.65;1.08;;;;;;;;;;7384692;19;20010;-72
2021/12/13 03:04:17;;;;;;;1.95;1.50;;;;;;;;;;7383636;19;20066;-72
2021/12/13 03:06:58;;;;;;;1.88;1.50;;;;;;;;;;7382213;19;20507;-72
2021/12/13 03:09:28;;;;;;;1.95;1.33;;;;;;;;;;7381259;19;20013;-72
2021/12/13 03:11:55;;;;;;;1.65;1.27;;;;;;;;;;7384484;19;20508;-71
2021/12/13 03:14:30;;;;;;;1.48;1.35;;;;;;;;;;7383160;19;20011;-73
2021/12/13 03:17:15;;;;;;;1.85;1.50;;;;;;;;;;7382960;19;20443;-70
2021/12/13 03:19:40;;;;;;;1.30;1.20;;;;;;;;;;7381776;19;20058;-72
2021/12/13 03:22:25;;;;;;;3.40;1.38;;;;;;;;;;7380882;19;20445;-72
2021/12/13 03:25:08;;;;;;;1.67;1.40;;;;;;;;;;7379566;19;20384;-72
2021/12/13 03:28:04;;;;;;;1.75;1.33;;;;;;;;;;7381843;19;20650;-70
2021/12/13 03:30:39;;;;;;;2.20;1.42;;;;;;;;;;7382010;19;20006;-73
2021/12/13 03:33:08;;;;;;;1.50;1.30;;;;;;;;;;7383769;19;20002;-71
2021/12/13 03:35:44;;;;;;;3.05;1.50;;;;;;;;;;7384630;19;20277;-71
2021/12/13 03:38:29;;;;;;;1.85;1.42;;;;;;;;;;7380702;19;20011;-72
2021/12/13 03:41:00;;;;;;;1.77;1.50;;;;;;;;;;7379179;19;20010;-72
2021/12/13 03:43:37;;;;;;;1.33;1.23;;;;;;;;;;7380516;19;20035;-72
2021/12/13 03:46:05;;;;;;;1.70;1.33;;;;;;;;;;7383754;19;20374;-73
2021/12/13 03:48:34;;;;;;;1.50;1.30;;;;;;;;;;7378813;19;20018;-73
2021/12/13 03:51:04;;;;;;;1.40;1.25;;;;;;;;;;7387270;19;20345;-72
2021/12/13 03:53:32;;;;;;;2.05;1.45;;;;;;;;;;7387506;19;20011;-72
2021/12/13 03:56:03;;;;;;;2.05;1.58;;;;;;;;;;7389532;19;20437;-72
2021/12/13 03:58:33;;;;;;;2.58;1.60;;;;;;;;;;7388867;19;20015;-72
2021/12/13 04:01:08;;;;;;;2.20;1.45;;;;;;;;;;7387579;19;20010;-72
2021/12/13 04:03:35;;;;;;;1.30;1.20;;;;;;;;;;7389289;19;20011;-72
2021/12/13 04:06:02;;;;;;;2.25;1.30;;;;;;;;;;7388017;19;20011;-72
2021/12/13 04:08:27;;;;;;;2.10;1.52;;;;;;;;;;7388063;19;20109;-72
2021/12/13 04:11:00;;;;;;;2.00;1.48;;;;;;;;;;7386190;19;20022;-72
2021/12/13 04:13:30;;;;;;;1.90;1.70;;;;;;;;;;7389955;19;20322;-72
2021/12/13 04:16:28;;;;;;;3.28;1.40;;;;;;;;;;7384506;19;20002;-71
2021/12/13 04:19:07;;;;;;;1.50;1.27;;;;;;;;;;7384291;19;20017;-72
2021/12/13 04:21:41;;;;;;;1.65;1.27;;;;;;;;;;7384322;19;20018;-72
2021/12/13 04:24:11;;;;;;;1.58;1.48;;;;;;;;;;7385752;19;20484;-71
2021/12/13 04:26:42;;;;;;;1.63;1.52;;;;;;;;;;7385742;19;20009;-72
2021/12/13 04:29:14;;;;;;;2.35;1.67;;;;;;;;;;7384418;19;19991;-72
2021/12/13 04:31:40;;;;;;;1.92;1.73;;;;;;;;;;7386007;19;20468;-72
2021/12/13 04:34:05;;;;;;;2.25;1.90;;;;;;;;;;7387124;19;20110;-71
2021/12/13 04:36:34;;;;;;;2.20;1.60;;;;;;;;;;7388156;19;20445;-72
2021/12/13 04:39:08;;;;;;;1.90;1.50;;;;;;;;;;7382612;19;20013;-73
2021/12/13 04:41:46;;;;;;;1.85;1.55;;;;;;;;;;7383798;19;20007;-73
2021/12/13 04:44:34;;;;;;;2.70;1.95;;;;;;;;;;7385111;19;20130;-73
2021/12/13 04:47:09;;;;;;;2.05;1.52;;;;;;;;;;7387877;19;19998;-73
2021/12/13 04:49:39;;;;;;;2.33;1.67;;;;;;;;;;7387452;19;20097;-72
2021/12/13 04:52:09;;;;;;;4.60;1.80;;;;;;;;;;7382026;19;20385;-72
2021/12/13 04:54:38;;;;;;;2.00;1.80;;;;;;;;;;7386335;19;20010;-72
2021/12/13 04:57:04;;;;;;;2.15;1.88;;;;;;;;;;7386686;19;20027;-71
2021/12/13 04:59:30;;;;;;;2.40;1.77;;;;;;;;;;7383977;19;20010;-72
2021/12/13 05:01:59;;;;;;;2.45;1.70;;;;;;;;;;7382401;19;20015;-73
2021/12/13 05:04:29;;;;;;;2.28;1.73;;;;;;;;;;7382162;19;20006;-72
2021/12/13 05:06:55;;;;;;;2.17;1.58;;;;;;;;;;7382400;19;20006;-72
2021/12/13 05:09:22;;;;;;;1.95;1.58;;;;;;;;;;7384992;19;20453;-73
2021/12/13 05:11:55;;;;;;;2.38;1.60;;;;;;;;;;7384298;19;20486;-72
2021/12/13 05:14:42;;;;;;;2.65;1.85;;;;;;;;;;7386834;19;20023;-73
2021/12/13 05:17:12;;;;;;;2.10;1.60;;;;;;;;;;7386526;19;20030;-73
2021/12/13 05:19:43;;;;;;;1.95;1.67;;;;;;;;;;7384153;19;20831;-72
2021/12/13 05:22:11;;;;;;;2.50;1.85;;;;;;;;;;7384142;19;20080;-73
2021/12/13 05:24:46;;;;;;;2.53;1.85;;;;;;;;;;7385068;19;20010;-71
2021/12/13 05:27:23;;;;;;;2.63;2.05;;;;;;;;;;7386534;19;20031;-72
2021/12/13 05:29:51;;;;;;;3.22;1.88;;;;;;;;;;7381781;19;20019;-72
2021/12/13 05:32:34;;;;;;;2.47;1.92;;;;;;;;;;7386183;19;20474;-72
2021/12/13 05:35:12;;;;;;;2.80;1.98;;;;;;;;;;7387085;19;20527;-72
2021/12/13 05:37:49;;;;;;;2.70;1.85;;;;;;;;;;7386487;19;20006;-72
2021/12/13 05:40:38;;;;;;;2.55;2.17;;;;;;;;;;7384498;19;20089;-73
2021/12/13 05:43:18;;;;;;;2.13;1.85;;;;;;;;;;7387987;19;20107;-72
2021/12/13 05:45:48;;;;;;;3.40;1.85;;;;;;;;;;7385970;19;20015;-72
2021/12/13 05:48:18;;;;;;;2.47;1.77;;;;;;;;;;7384497;19;20010;-72
2021/12/13 05:50:52;;;;;;;2.45;1.85;;;;;;;;;;7384426;19;20007;-72
2021/12/13 05:53:21;;;;;;;2.67;1.98;;;;;;;;;;7385651;19;20002;-72
2021/12/13 05:55:48;;;;;;;1.73;1.40;;;;;;;;;;7384439;19;20013;-71
2021/12/13 05:58:27;;;;;;;2.70;1.70;;;;;;;;;;7385410;19;20010;-71
2021/12/13 06:00:53;;;;;;;2.13;1.75;;;;;;;;;;7383351;19;20130;-73
2021/12/13 06:03:30;;;;;;;2.60;1.92;;;;;;;;;;7384077;19;20037;-73
2021/12/13 06:06:10;;;;;;;1.95;1.70;;;;;;;;;;7385828;19;20085;-72
2021/12/13 06:08:42;;;;;;;3.45;2.08;;;;;;;;;;7384115;19;20789;-72
2021/12/13 06:11:12;;;;;;;4.10;2.88;;;;;;;;;;7384325;19;20068;-73
2021/12/13 06:13:44;;;;;;;3.22;2.20;;;;;;;;;;7383345;19;20541;-70
2021/12/13 06:16:12;;;;;;;2.60;2.30;;;;;;;;;;7385609;19;20018;-71
2021/12/13 06:18:58;;;;;;;3.33;2.40;;;;;;;;;;7381920;19;20006;-72
2021/12/13 06:21:33;;;;;;;3.10;2.13;;;;;;;;;;7384841;19;20731;-74
2021/12/13 06:23:59;;;;;;;3.67;2.70;;;;;;;;;;7383130;19;20017;-73
2021/12/13 06:26:30;;;;;;;2.65;2.20;;;;;;;;;;7384365;19;19999;-72
2021/12/13 06:28:58;;;;;;;2.83;2.53;;;;;;;;;;7385193;19;20362;-73
2021/12/13 06:31:40;;;;;;;6.95;5.63;;;;;;;;;;7382906;19;20010;-72
2021/12/13 06:34:09;;;;;;;4.28;2.90;;;;;;;;;;7384043;19;20006;-72
2021/12/13 06:36:39;;;;;;;3.88;3.30;;;;;;;;;;7383539;19;20006;-72
2021/12/13 06:39:14;;;;;;;4.05;3.05;;;;;;;;;;7380794;19;20051;-71
2021/12/13 06:41:45;;;;;;;3.03;2.27;;;;;;;;;;7381679;19;20009;-73
2021/12/13 06:44:21;;;;;;;2.67;2.38;;;;;;;;;;7383693;19;20010;-70
2021/12/13 06:46:50;;;;;;;4.47;3.10;;;;;;;;;;7386703;19;20035;-71
2021/12/13 06:49:48;;;;;;;5.10;3.42;;;;;;;;;;7380418;19;20074;-71
2021/12/13 06:52:13;;;;;;;4.57;3.03;;;;;;;;;;7380381;19;20717;-73
2021/12/13 06:54:42;;;;;;;3.80;3.00;;;;;;;;;;7381492;19;20113;-72
2021/12/13 06:57:10;;;;;;;4.50;2.92;;;;;;;;;;7382155;19;20014;-72
2021/12/13 06:59:45;;;;;;;3.97;2.97;;;;;;;;;;7382116;19;20014;-73
2021/12/13 07:02:18;;;;;;;3.65;2.67;;;;;;;;;;7382878;19;20023;-72
2021/12/13 07:05:00;;;;;;;4.22;3.35;;;;;;;;;;7380448;19;20003;-73
2021/12/13 07:07:36;;;;;;;4.30;3.50;;;;;;;;;;7384816;19;20517;-72
2021/12/13 07:10:12;;;;;;;5.38;3.55;;;;;;;;;;7381771;19;20014;-74
2021/12/13 07:12:45;;;;;;;5.07;3.20;;;;;;;;;;7380483;19;20021;-72
2021/12/13 07:15:44;;;;;;;6.43;3.50;;;;;;;;;;7380294;19;20009;-72
2021/12/13 07:18:10;;;;;;;6.05;3.63;;;;;;;;;;7381244;19;19998;-72
2021/12/13 07:20:43;;;;;;;4.10;3.17;;;;;;;;;;7380752;19;19994;-73
2021/12/13 07:23:09;;;;;;;6.53;3.83;;;;;;;;;;7382396;19;20003;-72
2021/12/13 07:25:37;;;;;;;4.47;3.20;;;;;;;;;;7388247;19;20010;-73
2021/12/13 07:28:04;;;;;;;4.40;3.20;;;;;;;;;;7390725;19;19997;-71
2021/12/13 07:30:33;;;;;;;4.60;3.33;;;;;;;;;;7391818;19;20020;-74
2021/12/13 07:33:06;;;;;;;5.20;3.70;;;;;;;;;;7387968;19;20082;-72
2021/12/13 07:35:45;;;;;;;4.15;2.92;;;;;;;;;;7388662;19;19994;-73
2021/12/13 07:38:16;;;;;;;4.55;3.05;;;;;;;;;;7391590;19;20014;-73
2021/12/13 07:40:53;;;;;;;5.53;3.72;;;;;;;;;;7388560;19;20027;-72
2021/12/13 07:43:38;;;;;;;6.50;4.13;;;;;;;;;;7391523;19;20741;-72
2021/12/13 07:46:19;;;;;;;5.82;4.75;;;;;;;;;;7388649;19;20369;-71
2021/12/13 07:48:44;;;;;;;3.67;3.05;;;;;;;;;;7390654;19;20014;-74
2021/12/13 07:51:28;;;;;;;4.55;3.10;;;;;;;;;;7390163;19;20010;-73
2021/12/13 07:53:53;;;;;;;4.45;3.17;;;;;;;;;;7388175;19;20047;-71
2021/12/13 07:56:25;;;;;;;5.20;3.08;;;;;;;;;;7390462;19;20353;-73
2021/12/13 07:59:10;;;;;;;3.72;2.72;;;;;;;;;;7390588;19;20339;-73
2021/12/13 08:01:44;;;;;;;4.25;3.20;;;;;;;;;;7389386;19;20085;-72
2021/12/13 08:04:14;;;;;;;7.93;4.40;;;;;;;;;;7390099;19;20011;-72
2021/12/13 08:06:46;;;;;;;15.73;9.45;;;;;;;;;;7388268;19;20009;-73
2021/12/13 08:09:15;;;;;;;16.00;9.50;;;;;;;;;;7387521;19;20350;-73
2021/12/13 08:11:55;;;;;;;13.43;7.38;;;;;;;;;;7388729;19;20006;-72
2021/12/13 08:14:28;;;;;;;8.18;5.57;;;;;;;;;;7391185;19;20353;-71
2021/12/13 08:16:54;;;;;;;6.80;3.28;;;;;;;;;;7390171;19;20085;-73
2021/12/13 08:19:24;;;;;;;4.88;3.55;;;;;;;;;;7389261;19;20024;-74
2021/12/13 08:21:55;;;;;;;6.63;2.97;;;;;;;;;;7385639;19;20007;-73
2021/12/13 08:24:50;;;;;;;5.40;3.38;;;;;;;;;;7387026;19;20082;-72
2021/12/13 08:27:22;;;;;;;6.75;3.40;;;;;;;;;;7385921;19;20405;-73
2021/12/13 08:29:50;;;;;;;5.18;3.78;;;;;;;;;;7387485;19;20003;-72
2021/12/13 08:32:23;;;;;;;4.00;3.22;;;;;;;;;;7386051;19;20118;-72
2021/12/13 08:34:54;;;;;;;5.20;3.47;;;;;;;;;;7385692;19;20218;-73
2021/12/13 08:37:41;;;;;;;3.65;2.75;;;;;;;;;;7388182;19;20806;-73
2021/12/13 08:40:18;;;;;;;4.35;2.97;;;;;;;;;;7386637;19;20007;-73
2021/12/13 08:42:46;;;;;;;4.78;3.10;;;;;;;;;;7386131;19;20006;-72
2021/12/13 08:45:35;;;;;;;4.05;2.85;;;;;;;;;;7383880;19;20465;-71
2021/12/13 08:48:07;;;;;;;4.13;3.20;;;;;;;;;;7387837;19;20006;-74
2021/12/13 08:50:34;;;;;;;3.40;2.85;;;;;;;;;;7388375;19;19998;-73
2021/12/13 08:53:15;;;;;;;3.63;2.47;;;;;;;;;;7389386;19;20099;-72
2021/12/13 08:55:44;;;;;;;5.53;3.22;;;;;;;;;;7391110;19;19999;-72
2021/12/13 08:58:15;;;;;;;3.45;2.60;;;;;;;;;;7387446;19;20015;-72
2021/12/13 09:00:52;;;;;;;3.75;3.00;;;;;;;;;;7385404;19;20003;-72
2021/12/13 09:03:22;;;;;;;4.88;3.55;;;;;;;;;;7385774;19;20019;-73
2021/12/13 09:06:05;;;;;;;4.32;3.03;;;;;;;;;;7387906;19;20018;-73
2021/12/13 09:08:49;;;;;;;4.90;2.75;;;;;;;;;;7387849;19;20003;-72
2021/12/13 09:11:45;;;;;;;3.20;2.60;;;;;;;;;;7388869;19;20027;-72
2021/12/13 09:14:14;;;;;;;4.28;3.40;;;;;;;;;;7389457;19;20056;-74
2021/12/13 09:17:07;;;;;;;4.40;3.30;;;;;;;;;;7387696;19;20014;-72
2021/12/13 09:19:57;;;;;;;5.60;3.53;;;;;;;;;;7388362;19;20011;-72
2021/12/13 09:22:28;;;;;;;3.90;2.88;;;;;;;;;;7384165;19;20003;-72
2021/12/13 09:24:59;;;;;;;3.63;2.58;;;;;;;;;;7387272;19;20032;-71
2021/12/13 09:27:33;;;;;;;3.17;2.38;;;;;;;;;;7389199;19;20001;-76
2021/12/13 09:29:58;;;;;;;4.15;2.63;;;;;;;;;;7386031;19;19995;-70
2021/12/13 09:32:32;;;;;;;4.85;2.78;;;;;;;;;;7384812;19;20449;-75
2021/12/13 09:35:16;;;;;;;3.13;2.60;;;;;;;;;;7384649;19;20031;-73
2021/12/13 09:37:42;;;;;;;3.25;2.65;;;;;;;;;;7386290;19;20017;-72
2021/12/13 09:40:08;;;;;;;4.75;2.85;;;;;;;;;;7382222;19;20010;-70
2021/12/13 09:42:48;;;;;;;4.22;2.70;;;;;;;;;;7384883;19;20031;-74
2021/12/13 09:45:19;;;;;;;3.90;2.72;;;;;;;;;;7386427;19;20018;-72
2021/12/13 09:47:45;;;;;;;3.65;2.67;;;;;;;;;;7386995;19;20006;-71
2021/12/13 09:50:15;;;;;;;3.08;2.72;;;;;;;;;;7385748;19;20002;-70
2021/12/13 09:52:49;;;;;;;3.15;2.35;;;;;;;;;;7384170;19;20013;-71
2021/12/13 09:55:35;;;;;;;4.68;3.25;;;;;;;;;;7387395;19;20002;-73
2021/12/13 09:58:21;;;;;;;3.90;3.00;;;;;;;;;;7386676;19;20014;-71
2021/12/13 10:00:56;;;;;;;3.90;2.70;;;;;;;;;;7386172;19;20002;-73
2021/12/13 10:03:21;;;;;;;;;;;;;;;;;;7386794;19;20039;-71
2021/12/13 10:05:53;;;;;;;8.57;3.65;;;;;;;;;;7383903;19;19914;-73
2021/12/13 10:08:36;;;;;;;6.43;4.07;;;;;;;;;;7385152;19;20027;-71
2021/12/13 10:11:07;;;;;;;6.30;3.38;;;;;;;;;;7385780;19;20456;-71
2021/12/13 10:13:36;;;;;;;7.30;3.80;;;;;;;;;;7387407;19;20455;-71
2021/12/13 10:16:07;;;;;;;4.82;3.08;;;;;;;;;;7385882;19;20011;-72
2021/12/13 10:18:35;;;;;;;4.10;2.85;;;;;;;;;;7384008;19;20026;-74
2021/12/13 10:21:17;;;;;;;6.65;3.28;;;;;;;;;;7384197;19;20041;-71
2021/12/13 10:23:48;;;;;;;4.38;3.33;;;;;;;;;;7385173;19;20010;-73
2021/12/13 10:26:15;;;;;;;5.20;3.15;;;;;;;;;;7384537;19;20013;-71
2021/12/13 10:29:05;;;;;;;3.35;2.63;;;;;;;;;;7384480;19;20317;-71
2021/12/13 10:31:34;;;;;;;3.72;2.80;;;;;;;;;;7384210;19;20119;-71
2021/12/13 10:34:07;;;;;;;6.40;4.88;;;;;;;;;;7385298;19;20010;-71
2021/12/13 10:36:34;;;;;;;4.70;3.47;;;;;;;;;;7385261;19;20009;-71
2021/12/13 10:39:10;;;;;;;4.38;3.25;;;;;;;;;;7383359;19;20066;-72
2021/12/13 10:41:40;;;;;;;4.68;2.92;;;;;;;;;;7383571;19;20383;-73
2021/12/13 10:44:09;;;;;;;4.47;3.17;;;;;;;;;;7381608;19;20019;-73
2021/12/13 10:46:41;;;;;;;4.20;2.80;;;;;;;;;;7385131;19;20015;-71
2021/12/13 10:49:17;;;;;;;7.90;3.67;;;;;;;;;;7384028;19;20002;-72
2021/12/13 10:51:54;;;;;;;6.45;3.20;;;;;;;;;;7383874;19;20027;-72
2021/12/13 10:54:24;;;;;;;3.45;2.80;;;;;;;;;;7384886;19;20130;-74
2021/12/13 10:56:54;;;;;;;3.55;2.33;;;;;;;;;;7387468;19;20015;-71
2021/12/13 10:59:23;;;;;;;4.55;3.20;;;;;;;;;;7386949;19;20009;-77
2021/12/13 11:01:56;;;;;;;4.05;3.03;;;;;;;;;;7392430;19;20369;-73
2021/12/13 11:04:27;;;;;;;4.80;3.38;;;;;;;;;;7390305;19;20009;-72
2021/12/13 11:06:53;;;;;;;4.57;3.50;;;;;;;;;;7393675;19;20047;-74
2021/12/13 11:09:22;;;;;;;5.20;3.10;;;;;;;;;;7391324;19;19994;-71
2021/12/13 11:12:09;;;;;;;4.38;3.00;;;;;;;;;;7390055;19;20027;-71
2021/12/13 11:14:38;;;;;;;5.45;3.90;;;;;;;;;;7391823;19;20032;-74
2021/12/13 11:17:08;;;;;;;4.00;3.13;;;;;;;;;;7389458;19;20007;-73
2021/12/13 11:19:38;;;;;;;5.65;3.78;;;;;;;;;;7390195;19;20448;-72
2021/12/13 11:22:14;;;;;;;7.13;4.30;;;;;;;;;;7387595;19;20002;-72
2021/12/13 11:24:44;;;;;;;5.90;4.15;;;;;;;;;;7390122;19;20006;-72
2021/12/13 11:27:17;;;;;;;6.13;3.50;;;;;;;;;;7391690;19;20070;-73
2021/12/13 11:29:45;;;;;;;5.63;4.00;;;;;;;;;;7392301;19;20078;-72
2021/12/13 11:32:37;;;;;;;4.93;3.50;;;;;;;;;;7389580;19;20062;-71
2021/12/13 11:35:11;;;;;;;4.40;3.33;;;;;;;;;;7389200;19;20099;-71
2021/12/13 11:37:55;;;;;;;6.05;4.25;;;;;;;;;;7389684;19;20025;-71
2021/12/13 11:40:37;;;;;;;5.32;3.72;;;;;;;;;;7390897;19;19999;-72
2021/12/13 11:43:33;;;;;;;6.43;3.60;;;;;;;;;;7392987;19;20438;-71
2021/12/13 11:46:36;;;;;;;5.22;2.90;;;;;;;;;;7389129;19;20002;-71
2021/12/13 11:49:39;;;;;;;9.98;4.03;;;;;;;;;;7389764;19;20013;-74
2021/12/13 11:52:42;;;;;;;6.70;4.00;;;;;;;;;;7389612;19;20032;-72
2021/12/13 11:55:45;;;;;;;5.45;3.80;;;;;;;;;;7387266;19;20338;-72
2021/12/13 11:58:29;;;;;;;15.77;8.27;;;;;;;;;;7387883;19;20401;-75
2021/12/13 12:01:21;;;;;;;23.95;4.32;;;;;;;;;;7390667;19;20103;-73
2021/12/13 12:04:13;;;;;;;7.70;3.45;;;;;;;;;;7390192;19;20034;-76
2021/12/13 12:07:12;;;;;;;5.65;3.42;;;;;;;;;;7391573;19;20006;-70
2021/12/13 12:10:15;;;;;;;3.42;2.58;;;;;;;;;;7388922;19;20067;-73
2021/12/13 12:13:02;;;;;;;14.40;3.85;;;;;;;;;;7391555;19;20022;-72
2021/12/13 12:15:27;;;;;;;7.72;3.63;;;;;;;;;;7390618;19;20002;-73
2021/12/13 12:17:58;;;;;;;4.60;3.92;;;;;;;;;;7389516;19;20007;-74
2021/12/13 12:20:28;;;;;;;6.68;3.53;;;;;;;;;;7388894;19;20022;-70
2021/12/13 12:22:58;;;;;;;3.10;2.60;;;;;;;;;;7386616;19;20010;-71
2021/12/13 12:25:31;;;;;;;6.22;2.88;;;;;;;;;;7386189;19;20010;-75
2021/12/13 12:28:01;;;;;;;4.85;3.20;;;;;;;;;;7390749;19;20115;-71
2021/12/13 12:30:33;;;;;;;5.95;3.70;;;;;;;;;;7389880;19;20002;-72
2021/12/13 12:33:06;;;;;;;5.03;3.30;;;;;;;;;;7387865;19;20359;-73
2021/12/13 12:35:41;;;;;;;4.95;3.58;;;;;;;;;;7387490;19;20002;-74
2021/12/13 12:38:09;;;;;;;5.80;3.60;;;;;;;;;;7386824;19;20427;-76
2021/12/13 12:40:47;;;;;;;5.13;3.67;;;;;;;;;;7388941;19;20015;-70
2021/12/13 12:43:16;;;;;;;5.90;3.97;;;;;;;;;;7388213;19;20730;-73
2021/12/13 12:45:44;;;;;;;5.75;3.90;;;;;;;;;;7387082;19;20464;-71
2021/12/13 12:48:18;;;;;;;3.75;3.00;;;;;;;;;;7386433;19;20090;-75
2021/12/13 12:50:54;;;;;;;4.65;3.20;;;;;;;;;;7388755;19;20002;-70
2021/12/13 12:53:38;;;;;;;6.43;3.40;;;;;;;;;;7388374;19;20062;-73
2021/12/13 12:56:27;;;;;;;4.60;3.53;;;;;;;;;;7389336;19;19999;-74
2021/12/13 12:58:55;;;;;;;4.90;3.60;;;;;;;;;;7387378;19;20022;-72
2021/12/13 13:01:27;;;;;;;4.47;3.05;;;;;;;;;;7388177;19;20023;-73
2021/12/13 13:04:09;;;;;;;5.40;2.97;;;;;;;;;;7387358;19;20010;-73
2021/12/13 13:06:35;;;;;;;5.50;3.15;;;;;;;;;;7388668;19;20018;-72
2021/12/13 13:09:09;;;;;;;4.43;2.80;;;;;;;;;;7384037;19;20016;-75
2021/12/13 13:11:35;;;;;;;5.32;3.03;;;;;;;;;;7387540;19;20356;-72
2021/12/13 13:14:11;;;;;;;5.35;3.15;;;;;;;;;;7385458;19;20006;-73
2021/12/13 13:16:50;;;;;;;4.85;3.47;;;;;;;;;;7386025;19;20362;-74
2021/12/13 13:19:57;;;;;;;6.28;3.63;;;;;;;;;;7386338;19;20014;-73
2021/12/13 13:22:25;;;;;;;;;;;;;;;;;;7384186;19;20457;-70
2021/12/13 13:24:58;;;;;;;5.95;3.78;;;;;;;;;;7385488;19;19935;-72
2021/12/13 13:27:29;;;;;;;5.55;3.53;;;;;;;;;;7389534;19;20002;-71
2021/12/13 13:29:54;;;;;;;4.97;3.13;;;;;;;;;;7385435;19;20014;-73
2021/12/13 13:32:20;;;;;;;6.82;4.40;;;;;;;;;;7384002;19;20006;-73
2021/12/13 13:34:51;;;;;;;5.75;3.40;;;;;;;;;;7387513;19;19998;-74
2021/12/13 13:37:23;;;;;;;4.25;2.83;;;;;;;;;;7385295;19;19997;-72
2021/12/13 13:39:50;;;;;;;4.55;3.33;;;;;;;;;;7384704;19;20014;-73
2021/12/13 13:42:25;;;;;;;5.32;3.42;;;;;;;;;;7386807;19;20003;-73
2021/12/13 13:44:55;;;;;;;4.10;3.15;;;;;;;;;;7387550;19;20015;-73
2021/12/13 13:47:34;;;;;;;3.85;2.70;;;;;;;;;;7385699;19;20785;-73
2021/12/13 13:50:15;;;;;;;4.20;3.05;;;;;;;;;;7383827;19;20465;-72
2021/12/13 13:52:44;;;;;;;5.47;3.90;;;;;;;;;;7384419;19;20017;-73
2021/12/13 13:55:27;;;;;;;5.28;2.95;;;;;;;;;;7384312;19;19998;-73
2021/12/13 13:57:56;;;;;;;4.47;3.25;;;;;;;;;;7385996;19;20036;-73
2021/12/13 14:00:23;;;;;;;4.93;3.20;;;;;;;;;;7387006;19;20003;-72
2021/12/13 14:02:49;;;;;;;5.80;3.10;;;;;;;;;;7385115;19;20034;-73
2021/12/13 14:05:15;;;;;;;5.32;3.63;;;;;;;;;;7383780;19;20536;-73
2021/12/13 14:07:43;;;;;;;3.47;2.55;;;;;;;;;;7387143;19;20007;-72
2021/12/13 14:10:21;;;;;;;5.32;4.00;;;;;;;;;;7385813;19;20007;-72
2021/12/13 14:12:50;;;;;;;4.82;3.55;;;;;;;;;;7384512;19;20043;-72
2021/12/13 14:15:27;;;;;;;3.88;2.70;;;;;;;;;;7387103;19;19999;-74
2021/12/13 14:17:54;;;;;;;5.45;3.30;;;;;;;;;;7385226;19;20009;-75
2021/12/13 14:20:55;;;;;;;3.08;2.28;;;;;;;;;;7385450;19;20009;-72
2021/12/13 14:23:29;;;;;;;5.18;3.22;;;;;;;;;;7379436;19;19995;-72
2021/12/13 14:26:06;;;;;;;4.53;3.20;;;;;;;;;;7385534;19;20019;-73
2021/12/13 14:28:45;;;;;;;3.42;2.65;;;;;;;;;;7385000;19;20051;-75
2021/12/13 14:31:41;;;;;;;3.28;2.40;;;;;;;;;;7387554;19;20007;-73
2021/12/13 14:34:10;;;;;;;3.30;2.28;;;;;;;;;;7385067;19;20003;-72
2021/12/13 14:36:40;;;;;;;3.60;2.47;;;;;;;;;;7384644;19;20014;-73
2021/12/13 14:39:17;;;;;;;4.30;2.42;;;;;;;;;;7382037;19;20003;-72
2021/12/13 14:41:47;;;;;;;4.13;2.70;;;;;;;;;;7386808;19;20015;-73
2021/12/13 14:44:15;;;;;;;3.80;2.78;;;;;;;;;;7382467;19;20481;-73
2021/12/13 14:46:51;;;;;;;2.70;2.25;;;;;;;;;;7386003;19;20010;-73
2021/12/13 14:49:23;;;;;;;4.47;2.85;;;;;;;;;;7384753;19;20022;-73
2021/12/13 14:52:05;;;;;;;3.67;3.05;;;;;;;;;;7383055;19;20010;-73
2021/12/13 14:54:35;;;;;;;4.25;2.50;;;;;;;;;;7385560;19;20014;-73
2021/12/13 14:57:07;;;;;;;4.70;2.70;;;;;;;;;;7385506;19;20010;-73
2021/12/13 14:59:37;;;;;;;3.95;3.00;;;;;;;;;;7383316;19;20122;-75
2021/12/13 15:02:09;;;;;;;3.83;2.60;;;;;;;;;;7384158;19;20078;-72
2021/12/13 15:04:35;;;;;;;4.80;3.10;;;;;;;;;;7383477;19;19998;-72
2021/12/13 15:07:07;;;;;;;3.00;2.22;;;;;;;;;;7385227;19;20028;-72
2021/12/13 15:09:46;;;;;;;3.55;2.30;;;;;;;;;;7382184;19;20008;-72
2021/12/13 15:12:16;;;;;;;3.25;2.55;;;;;;;;;;7385192;19;20019;-72
2021/12/13 15:14:52;;;;;;;2.92;2.28;;;;;;;;;;7386436;19;20106;-74
2021/12/13 15:17:32;;;;;;;4.20;2.95;;;;;;;;;;7383381;19;20003;-73
2021/12/13 15:20:18;;;;;;;3.38;2.67;;;;;;;;;;7384637;19;20066;-73
2021/12/13 15:22:49;;;;;;;3.70;2.50;;;;;;;;;;7383265;19;20028;-75
2021/12/13 15:25:19;;;;;;;2.63;2.10;;;;;;;;;;7384476;19;19991;-76
2021/12/13 15:27:46;;;;;;;4.80;2.95;;;;;;;;;;7385606;19;20010;-76
2021/12/13 15:30:15;;;;;;;3.85;2.67;;;;;;;;;;7382314;19;20464;-71
2021/12/13 15:32:45;;;;;;;3.85;2.83;;;;;;;;;;7381513;19;20006;-73